createdAt,value
2023-03-19T00:01:57.227Z,5.22
2023-03-19T00:04:02.178Z,5.15
2023-03-19T00:06:07.364Z,5.40
2023-03-19T00:08:12.758Z,4.70
2023-03-19T00:10:19.157Z,4.50
2023-03-19T00:12:24.420Z,4.38
2023-03-19T00:14:34.203Z,4.60
2023-03-19T00:16:40.642Z,4.40
2023-03-19T00:18:45.612Z,4.63
2023-03-19T00:20:50.773Z,4.43
2023-03-19T00:22:59.419Z,4.45
2023-03-19T00:25:04.797Z,5.40
2023-03-19T00:27:10.488Z,4.53
2023-03-19T00:29:18.289Z,5.07
2023-03-19T00:31:27.141Z,5.07
2023-03-19T00:33:33.329Z,4.90
2023-03-19T00:35:39.245Z,5.25
2023-03-19T00:37:47.036Z,5.25
2023-03-19T00:39:51.921Z,5.65
2023-03-19T00:41:57.992Z,4.93
2023-03-19T00:44:10.369Z,5.07
2023-03-19T00:46:16.254Z,5.20
2023-03-19T00:48:24.939Z,5.43
2023-03-19T00:52:34.898Z,5.35
2023-03-19T00:54:40.072Z,5.70
2023-03-19T00:56:46.046Z,5.60
2023-03-19T00:58:51.819Z,5.70
2023-03-19T01:00:58.940Z,4.88
2023-03-19T01:03:04.129Z,5.65
2023-03-19T01:05:13.294Z,5.35
2023-03-19T01:07:18.759Z,5.63
2023-03-19T01:09:24.221Z,5.40
2023-03-19T01:11:32.303Z,5.30
2023-03-19T01:13:37.404Z,5.63
2023-03-19T01:15:44.365Z,4.80
2023-03-19T01:17:50.737Z,5.28
2023-03-19T01:19:56.682Z,4.93
2023-03-19T01:22:04.523Z,5.00
2023-03-19T01:24:13.736Z,4.65
2023-03-19T01:26:20.861Z,4.57
2023-03-19T01:28:29.800Z,5.20
2023-03-19T01:30:35.789Z,4.72
2023-03-19T01:32:43.544Z,5.60
2023-03-19T01:35:09.945Z,4.95
2023-03-19T01:37:17.467Z,5.15
2023-03-19T01:39:23.195Z,4.20
2023-03-19T01:41:28.647Z,5.40
2023-03-19T01:43:42.257Z,4.53
2023-03-19T01:46:07.366Z,4.40
2023-03-19T01:48:44.660Z,4.65
2023-03-19T01:50:57.549Z,4.20
2023-03-19T01:53:34.525Z,4.85
2023-03-19T01:55:55.048Z,4.80
2023-03-19T01:58:13.400Z,4.50
2023-03-19T02:00:21.711Z,4.35
2023-03-19T02:02:32.169Z,4.72
2023-03-19T02:04:50.165Z,4.63
2023-03-19T02:06:57.368Z,4.30
2023-03-19T02:09:06.296Z,5.03
2023-03-19T02:11:11.688Z,4.28
2023-03-19T02:13:17.375Z,4.93
2023-03-19T02:15:24.112Z,4.88
2023-03-19T02:17:30.738Z,4.80
2023-03-19T02:19:48.274Z,5.18
2023-03-19T02:21:54.616Z,4.35
2023-03-19T02:24:16.991Z,4.03
2023-03-19T02:26:37.539Z,4.40
2023-03-19T02:28:47.998Z,4.45
2023-03-19T02:30:58.974Z,4.38
2023-03-19T02:33:04.131Z,4.88
2023-03-19T02:35:12.126Z,4.07
2023-03-19T02:37:25.502Z,4.20
2023-03-19T02:39:37.573Z,3.97
2023-03-19T02:41:45.752Z,4.35
2023-03-19T02:43:55.318Z,3.33
2023-03-19T02:46:00.633Z,3.92
2023-03-19T02:48:06.048Z,4.15
2023-03-19T02:50:12.935Z,3.47
2023-03-19T02:52:18.268Z,3.42
2023-03-19T02:54:27.835Z,4.03
2023-03-19T02:56:33.770Z,4.03
2023-03-19T02:58:44.848Z,3.67
2023-03-19T03:00:49.813Z,3.90
2023-03-19T03:02:55.179Z,4.13
2023-03-19T03:05:00.155Z,3.95
2023-03-19T03:07:06.253Z,4.53
2023-03-19T03:09:11.804Z,3.88
2023-03-19T03:11:18.869Z,4.05
2023-03-19T03:13:26.335Z,4.47
2023-03-19T03:15:35.729Z,4.35
2023-03-19T03:17:43.561Z,4.20
2023-03-19T03:19:51.675Z,4.50
2023-03-19T03:22:00.758Z,4.18
2023-03-19T03:24:07.978Z,3.80
2023-03-19T03:26:14.281Z,3.57
2023-03-19T03:28:19.620Z,3.70
2023-03-19T03:30:25.376Z,3.90
2023-03-19T03:32:32.920Z,3.38
2023-03-19T03:34:41.668Z,3.42
2023-03-19T03:36:49.275Z,3.63
2023-03-19T03:38:54.182Z,3.92
2023-03-19T03:40:59.110Z,3.60
2023-03-19T03:43:05.054Z,3.80
2023-03-19T03:45:14.542Z,3.75
2023-03-19T03:47:22.889Z,4.28
2023-03-19T03:49:30.528Z,4.05
2023-03-19T03:51:37.427Z,4.20
2023-03-19T03:53:44.792Z,4.20
2023-03-19T03:55:51.665Z,3.90
2023-03-19T03:58:02.820Z,4.40
2023-03-19T04:00:16.764Z,4.93
2023-03-19T04:02:23.550Z,4.60
2023-03-19T04:04:32.387Z,3.72
2023-03-19T04:06:37.423Z,4.13
2023-03-19T04:09:01.332Z,4.65
2023-03-19T04:11:10.672Z,4.32
2023-03-19T04:13:16.475Z,5.35
2023-03-19T04:15:24.242Z,5.28
2023-03-19T04:17:34.296Z,4.32
2023-03-19T04:19:43.535Z,4.65
2023-03-19T04:21:50.137Z,3.92
2023-03-19T04:23:55.672Z,3.85
2023-03-19T04:26:04.497Z,3.50
2023-03-19T04:28:11.782Z,3.20
2023-03-19T04:30:19.013Z,3.22
2023-03-19T04:32:25.302Z,3.47
2023-03-19T04:34:32.173Z,3.50
2023-03-19T04:36:39.990Z,3.45
2023-03-19T04:38:44.911Z,3.35
2023-03-19T04:40:50.534Z,3.63
2023-03-19T04:42:55.688Z,3.17
2023-03-19T04:45:13.607Z,3.33
2023-03-19T04:47:20.168Z,3.58
2023-03-19T04:49:33.292Z,4.93
2023-03-19T04:51:42.147Z,3.67
2023-03-19T04:53:50.425Z,4.05
2023-03-19T04:55:55.878Z,4.13
2023-03-19T04:58:01.375Z,4.65
2023-03-19T05:00:12.047Z,4.72
2023-03-19T05:02:21.430Z,5.65
2023-03-19T05:04:27.637Z,4.72
2023-03-19T05:06:41.790Z,5.28
2023-03-19T05:10:57.488Z,5.03
2023-03-19T05:13:04.826Z,5.22
2023-03-19T05:15:14.844Z,5.43
2023-03-19T05:19:46.260Z,5.40
2023-03-19T05:21:53.775Z,5.22
2023-03-19T05:24:02.244Z,5.70
2023-03-19T05:26:11.957Z,5.57
2023-03-19T05:28:53.069Z,5.28
2023-03-19T05:31:07.555Z,6.32
2023-03-19T05:33:19.544Z,5.03
2023-03-19T05:35:24.610Z,5.13
2023-03-19T05:37:32.799Z,5.25
2023-03-19T05:39:38.427Z,5.35
2023-03-19T05:41:46.777Z,5.95
2023-03-19T05:43:57.752Z,5.70
2023-03-19T05:46:19.265Z,5.55
2023-03-19T05:48:24.938Z,5.82
2023-03-19T05:50:34.029Z,5.55
2023-03-19T05:52:54.952Z,5.90
2023-03-19T05:55:04.721Z,6.03
2023-03-19T05:57:17.688Z,5.38
2023-03-19T05:59:27.558Z,5.60
2023-03-19T06:01:46.058Z,6.05
2023-03-19T06:03:51.453Z,5.72
2023-03-19T06:05:59.080Z,6.03
2023-03-19T06:08:14.643Z,5.40
2023-03-19T06:10:44.942Z,5.13
2023-03-19T06:12:52.173Z,5.10
2023-03-19T06:15:29.242Z,5.00
2023-03-19T06:17:58.604Z,5.40
2023-03-19T06:20:08.326Z,5.10
2023-03-19T06:22:13.930Z,4.63
2023-03-19T06:24:21.771Z,4.50
2023-03-19T06:26:28.089Z,4.72
2023-03-19T06:28:46.641Z,4.80
2023-03-19T06:30:52.415Z,5.18
2023-03-19T06:33:16.537Z,4.55
2023-03-19T06:35:22.828Z,4.80
2023-03-19T06:37:29.618Z,4.32
2023-03-19T06:39:38.262Z,5.00
2023-03-19T06:41:43.293Z,4.60
2023-03-19T06:43:54.484Z,4.68
2023-03-19T06:45:59.932Z,5.18
2023-03-19T06:48:04.889Z,5.05
2023-03-19T06:50:14.304Z,5.18
2023-03-19T06:52:22.419Z,4.90
2023-03-19T06:54:27.573Z,5.93
2023-03-19T06:56:38.937Z,5.10
2023-03-19T06:58:45.121Z,5.28
2023-03-19T07:00:51.102Z,5.30
2023-03-19T07:02:56.151Z,5.78
2023-03-19T07:05:02.551Z,5.07
2023-03-19T07:07:08.095Z,5.80
2023-03-19T07:09:13.308Z,5.57
2023-03-19T07:11:18.956Z,5.28
2023-03-19T07:13:26.532Z,5.25
2023-03-19T07:15:31.641Z,4.88
2023-03-19T07:17:36.548Z,5.95
2023-03-19T07:19:43.124Z,5.25
2023-03-19T07:21:48.045Z,6.72
2023-03-19T07:23:53.340Z,5.95
2023-03-19T07:26:00.459Z,5.97
2023-03-19T07:28:07.531Z,5.88
2023-03-19T07:30:18.216Z,5.75
2023-03-19T07:32:23.496Z,5.80
2023-03-19T07:34:28.983Z,4.97
2023-03-19T07:36:37.817Z,5.25
2023-03-19T07:38:42.753Z,5.15
2023-03-19T07:41:01.522Z,5.28
2023-03-19T07:43:07.472Z,4.65
2023-03-19T07:45:15.855Z,4.63
2023-03-19T07:47:29.087Z,4.95
2023-03-19T07:49:34.403Z,4.80
2023-03-19T07:51:39.497Z,4.97
2023-03-19T07:53:46.651Z,4.60
2023-03-19T07:55:51.675Z,4.63
2023-03-19T07:57:56.804Z,4.78
2023-03-19T08:00:01.897Z,4.22
2023-03-19T08:02:09.738Z,4.78
2023-03-19T08:06:24.237Z,4.47
2023-03-19T08:08:34.927Z,4.75
2023-03-19T08:12:44.928Z,4.68
2023-03-19T08:14:49.828Z,4.75
2023-03-19T08:16:55.076Z,4.70
2023-03-19T08:19:02.647Z,4.28
2023-03-19T08:21:09.531Z,4.72
2023-03-19T08:23:17.423Z,4.50
2023-03-19T08:27:30.597Z,4.20
2023-03-19T08:29:38.542Z,4.80
2023-03-19T08:31:44.167Z,3.67
2023-03-19T08:33:49.095Z,3.65
2023-03-19T08:35:56.580Z,3.50
2023-03-19T08:40:07.524Z,3.25
2023-03-19T08:42:12.859Z,3.10
2023-03-19T08:44:17.856Z,2.92
2023-03-19T08:46:22.877Z,3.42
2023-03-19T08:48:28.084Z,3.53
2023-03-19T08:50:33.337Z,3.60
2023-03-19T08:52:41.370Z,3.78
2023-03-19T08:54:46.409Z,3.25
2023-03-19T08:56:51.575Z,3.60
2023-03-19T08:58:58.533Z,3.63
2023-03-19T09:01:08.833Z,3.80
2023-03-19T09:03:13.738Z,3.28
2023-03-19T09:05:22.450Z,3.00
2023-03-19T09:07:31.592Z,3.53
2023-03-19T09:09:39.316Z,3.85
2023-03-19T09:11:46.570Z,3.70
2023-03-19T09:13:51.685Z,3.22
2023-03-19T09:15:58.081Z,3.08
2023-03-19T09:18:04.972Z,3.25
2023-03-19T09:20:15.778Z,3.37
2023-03-19T09:22:22.681Z,3.47
2023-03-19T09:24:31.919Z,2.70
2023-03-19T09:26:39.397Z,3.05
2023-03-19T09:28:44.557Z,3.20
2023-03-19T09:30:50.463Z,3.13
2023-03-19T09:32:55.470Z,2.50
2023-03-19T09:35:00.485Z,2.25
2023-03-19T09:37:05.669Z,2.47
2023-03-19T09:39:10.931Z,2.78
2023-03-19T09:41:27.203Z,2.80
2023-03-19T09:43:58.824Z,2.70
2023-03-19T09:46:07.470Z,2.70
2023-03-19T09:48:22.153Z,2.30
2023-03-19T09:50:32.372Z,2.13
2023-03-19T09:52:47.234Z,2.30
2023-03-19T09:54:55.718Z,2.25
2023-03-19T09:57:01.073Z,2.22
2023-03-19T09:59:12.657Z,2.63
2023-03-19T10:01:28.684Z,2.42
2023-03-19T10:03:50.511Z,2.05
2023-03-19T10:06:09.507Z,2.03
2023-03-19T10:09:27.311Z,2.40
2023-03-19T10:11:50.424Z,2.30
2023-03-19T10:14:07.807Z,2.30
2023-03-19T10:16:24.521Z,2.53
2023-03-19T10:18:34.672Z,2.33
2023-03-19T10:20:50.828Z,2.75
2023-03-19T10:23:06.583Z,2.30
2023-03-19T10:25:16.324Z,2.50
2023-03-19T10:27:25.001Z,2.30
2023-03-19T10:29:31.268Z,2.15
2023-03-19T10:31:50.123Z,2.65
2023-03-19T10:34:14.068Z,2.22
2023-03-19T10:36:22.708Z,2.00
2023-03-19T10:38:31.268Z,1.80
2023-03-19T10:40:47.569Z,1.65
2023-03-19T10:43:08.788Z,2.00
2023-03-19T10:45:27.132Z,1.70
2023-03-19T10:47:43.389Z,2.08
2023-03-19T10:49:52.512Z,2.08
2023-03-19T10:52:01.401Z,1.77
2023-03-19T10:54:20.832Z,1.65
2023-03-19T10:56:30.161Z,1.77
2023-03-19T10:58:37.542Z,1.73
2023-03-19T11:00:42.474Z,1.77
2023-03-19T11:02:55.342Z,1.83
2023-03-19T11:05:22.171Z,1.80
2023-03-19T11:07:29.867Z,1.80
2023-03-19T11:09:39.474Z,2.00
2023-03-19T11:11:50.683Z,1.95
2023-03-19T11:14:01.849Z,1.73
2023-03-19T11:16:07.221Z,1.60
2023-03-19T11:18:23.210Z,2.28
2023-03-19T11:20:35.492Z,1.60
2023-03-19T11:22:42.824Z,1.83
2023-03-19T11:25:00.003Z,1.83
2023-03-19T11:27:07.425Z,2.42
2023-03-19T11:29:13.029Z,1.80
2023-03-19T11:31:29.025Z,1.83
2023-03-19T11:34:00.330Z,1.92
2023-03-19T11:36:14.821Z,1.52
2023-03-19T11:38:28.838Z,1.33
2023-03-19T11:40:52.810Z,1.45
2023-03-19T11:43:16.648Z,1.50
2023-03-19T11:45:34.905Z,1.60
2023-03-19T11:47:49.594Z,1.83
2023-03-19T11:50:44.756Z,1.35
2023-03-19T11:53:06.628Z,1.40
2023-03-19T11:55:24.101Z,1.55
2023-03-19T11:59:59.192Z,2.00
2023-03-19T12:02:43.434Z,1.58
2023-03-19T12:05:21.340Z,1.73
2023-03-19T12:07:37.935Z,1.70
2023-03-19T12:09:54.497Z,1.80
2023-03-19T12:12:14.523Z,1.75
2023-03-19T12:14:44.932Z,1.58
2023-03-19T12:17:09.402Z,1.70
2023-03-19T12:19:38.515Z,2.03
2023-03-19T12:22:01.526Z,1.65
2023-03-19T12:24:15.309Z,1.55
2023-03-19T12:26:32.027Z,1.63
2023-03-19T12:28:40.656Z,1.63
2023-03-19T12:30:53.919Z,1.73
2023-03-19T12:33:20.373Z,1.55
2023-03-19T12:35:33.609Z,1.83
2023-03-19T12:37:48.010Z,1.90
2023-03-19T12:40:10.535Z,1.95
2023-03-19T12:42:22.250Z,1.45
2023-03-19T12:44:33.695Z,2.00
2023-03-19T12:46:45.039Z,1.83
2023-03-19T12:48:55.783Z,1.85
2023-03-19T12:51:08.114Z,1.83
2023-03-19T12:53:31.688Z,1.35
2023-03-19T12:55:44.383Z,1.40
2023-03-19T12:57:54.112Z,2.38
2023-03-19T13:00:07.225Z,1.30
2023-03-19T13:02:25.885Z,1.60
2023-03-19T13:04:39.929Z,1.20
2023-03-19T13:06:55.244Z,1.40
2023-03-19T13:09:16.222Z,1.73
2023-03-19T13:11:34.129Z,1.77
2023-03-19T13:13:46.711Z,1.40
2023-03-19T13:15:55.436Z,2.60
2023-03-19T13:18:14.612Z,1.70
2023-03-19T13:20:31.883Z,2.53
2023-03-19T13:24:53.818Z,1.70
2023-03-19T13:27:01.468Z,1.60
2023-03-19T13:29:19.058Z,1.50
2023-03-19T13:31:27.792Z,2.05
2023-03-19T13:33:38.929Z,5.05
2023-03-19T13:35:46.928Z,4.40
2023-03-19T13:38:00.050Z,3.88
2023-03-19T13:40:46.415Z,2.65
2023-03-19T13:43:00.004Z,1.33
2023-03-19T13:45:08.639Z,2.47
2023-03-19T13:47:45.695Z,1.27
2023-03-19T13:50:27.746Z,2.20
2023-03-19T13:53:25.942Z,1.55
2023-03-19T13:55:52.709Z,1.60
2023-03-19T13:58:17.800Z,1.98
2023-03-19T14:01:01.848Z,2.00
2023-03-19T14:03:19.239Z,1.40
2023-03-19T14:05:24.938Z,1.80
2023-03-19T14:07:34.062Z,1.20
2023-03-19T14:09:44.789Z,1.40
2023-03-19T14:11:52.275Z,1.77
2023-03-19T14:16:20.422Z,1.40
2023-03-19T14:18:26.679Z,1.60
2023-03-19T14:20:41.051Z,1.55
2023-03-19T14:23:05.364Z,1.38
2023-03-19T14:25:21.396Z,1.77
2023-03-19T14:27:33.629Z,1.63
2023-03-19T14:29:39.007Z,1.85
2023-03-19T14:31:50.086Z,1.90
2023-03-19T14:34:02.274Z,2.08
2023-03-19T14:36:10.352Z,1.88
2023-03-19T14:38:28.948Z,1.70
2023-03-19T14:40:43.086Z,2.08
2023-03-19T14:43:04.892Z,1.75
2023-03-19T14:45:51.671Z,1.90
2023-03-19T14:48:20.870Z,2.13
2023-03-19T14:50:48.556Z,2.17
2023-03-19T14:53:01.087Z,1.92
2023-03-19T14:55:13.807Z,2.05
2023-03-19T14:57:21.758Z,2.05
2023-03-19T14:59:29.380Z,1.75
2023-03-19T15:03:44.092Z,2.13
2023-03-19T15:05:54.139Z,1.98
2023-03-19T15:08:04.291Z,2.25
2023-03-19T15:10:17.871Z,2.00
2023-03-19T15:12:57.573Z,2.40
2023-03-19T15:15:37.779Z,1.90
2023-03-19T15:17:51.711Z,2.15
2023-03-19T15:20:19.815Z,1.90
2023-03-19T15:22:34.905Z,2.00
2023-03-19T15:24:40.156Z,2.00
2023-03-19T15:26:45.321Z,1.88
2023-03-19T15:28:53.945Z,2.05
2023-03-19T15:31:26.309Z,2.13
2023-03-19T15:33:44.061Z,2.13
2023-03-19T15:35:53.561Z,2.15
2023-03-19T15:38:07.096Z,2.47
2023-03-19T15:40:16.554Z,1.52
2023-03-19T15:42:25.600Z,2.30
2023-03-19T15:44:37.277Z,1.92
2023-03-19T15:46:47.326Z,2.30
2023-03-19T15:49:01.141Z,1.92
2023-03-19T15:51:10.021Z,2.70
2023-03-19T15:53:20.291Z,2.25
2023-03-19T15:55:28.935Z,2.30
2023-03-19T15:57:36.087Z,2.17
2023-03-19T15:59:43.449Z,2.50
2023-03-19T16:04:03.442Z,2.70
2023-03-19T16:06:15.672Z,1.90
2023-03-19T16:08:25.351Z,2.28
2023-03-19T16:10:45.714Z,1.90
2023-03-19T16:12:53.051Z,2.30
2023-03-19T16:14:57.965Z,2.20
2023-03-19T16:17:13.508Z,1.98
2023-03-19T16:19:38.284Z,1.85
2023-03-19T16:21:47.826Z,2.13
2023-03-19T16:24:01.964Z,2.35
2023-03-19T16:26:18.851Z,2.15
2023-03-19T16:28:25.285Z,1.58
2023-03-19T16:30:31.242Z,1.80
2023-03-19T16:32:39.909Z,1.60
2023-03-19T16:34:48.650Z,1.60
2023-03-19T16:36:56.023Z,1.92
2023-03-19T16:41:36.365Z,1.42
2023-03-19T16:43:48.287Z,1.70
2023-03-19T16:45:55.256Z,1.67
2023-03-19T16:48:05.609Z,1.95
2023-03-19T16:50:13.464Z,1.48
2023-03-19T16:52:24.107Z,2.20
2023-03-19T16:54:29.051Z,1.75
2023-03-19T16:56:34.304Z,3.50
2023-03-19T16:58:43.053Z,2.45
2023-03-19T17:00:48.988Z,2.42
2023-03-19T17:02:55.790Z,2.47
2023-03-19T17:05:03.317Z,1.87
2023-03-19T17:07:10.918Z,1.65
2023-03-19T17:09:16.599Z,1.95
2023-03-19T17:11:29.555Z,1.90
2023-03-19T17:13:43.147Z,1.40
2023-03-19T17:15:51.870Z,2.00
2023-03-19T17:17:57.333Z,1.60
2023-03-19T17:20:06.137Z,1.73
2023-03-19T17:22:16.160Z,2.30
2023-03-19T17:24:27.133Z,2.60
2023-03-19T17:26:32.519Z,2.08
2023-03-19T17:28:38.445Z,2.05
2023-03-19T17:30:45.840Z,1.70
2023-03-19T17:32:55.460Z,2.08
2023-03-19T17:35:01.036Z,1.70
2023-03-19T17:37:13.593Z,2.67
2023-03-19T17:39:26.143Z,2.13
2023-03-19T17:41:33.029Z,1.83
2023-03-19T17:43:38.076Z,1.90
2023-03-19T17:45:48.492Z,2.20
2023-03-19T17:47:56.831Z,2.22
2023-03-19T17:50:01.880Z,1.98
2023-03-19T17:52:16.648Z,1.95
2023-03-19T17:54:25.828Z,1.80
2023-03-19T17:56:30.845Z,2.20
2023-03-19T17:58:37.275Z,3.30
2023-03-19T18:00:42.476Z,2.88
2023-03-19T18:02:56.854Z,2.42
2023-03-19T18:05:07.422Z,2.80
2023-03-19T18:07:15.341Z,2.42
2023-03-19T18:09:26.249Z,2.70
2023-03-19T18:11:31.283Z,2.65
2023-03-19T18:13:36.621Z,2.47
2023-03-19T18:15:44.013Z,2.40
2023-03-19T18:17:53.582Z,2.40
2023-03-19T18:19:58.499Z,2.80
2023-03-19T18:22:03.867Z,3.17
2023-03-19T18:24:13.010Z,4.22
2023-03-19T18:26:21.726Z,3.42
2023-03-19T18:28:28.454Z,4.35
2023-03-19T18:30:37.394Z,4.70
2023-03-19T18:32:46.595Z,5.60
2023-03-19T18:34:51.604Z,5.65
2023-03-19T18:36:56.848Z,9.07
2023-03-19T18:39:02.571Z,9.68
2023-03-19T18:41:19.905Z,7.03
2023-03-19T18:43:41.135Z,5.75
2023-03-19T18:45:46.951Z,4.95
2023-03-19T18:47:55.181Z,5.53
2023-03-19T18:50:00.870Z,7.00
2023-03-19T18:52:06.762Z,6.63
2023-03-19T18:54:13.322Z,7.40
2023-03-19T18:56:28.295Z,9.27
2023-03-19T18:58:33.182Z,3.60
2023-03-19T19:00:39.843Z,3.50
2023-03-19T19:02:44.837Z,4.38
2023-03-19T19:04:52.369Z,3.45
2023-03-19T19:06:57.358Z,3.75
2023-03-19T19:09:03.832Z,3.53
2023-03-19T19:11:10.374Z,3.28
2023-03-19T19:13:23.808Z,3.60
2023-03-19T19:15:33.470Z,4.40
2023-03-19T19:17:39.195Z,4.13
2023-03-19T19:19:44.150Z,4.35
2023-03-19T19:21:49.064Z,4.82
2023-03-19T19:23:56.014Z,2.97
2023-03-19T19:26:01.018Z,3.15
2023-03-19T19:28:09.065Z,3.80
2023-03-19T19:30:22.341Z,3.75
2023-03-19T19:32:32.565Z,4.50
2023-03-19T19:34:38.456Z,4.10
2023-03-19T19:36:43.472Z,3.72
2023-03-19T19:38:48.948Z,3.90
2023-03-19T19:40:58.334Z,4.10
2023-03-19T19:43:03.822Z,4.03
2023-03-19T19:45:19.079Z,4.85
2023-03-19T19:47:27.040Z,4.95
2023-03-19T19:49:33.736Z,4.13
2023-03-19T19:51:38.884Z,3.67
2023-03-19T19:53:45.353Z,4.20
2023-03-19T19:55:50.901Z,4.10
2023-03-19T19:58:01.615Z,4.15
2023-03-19T20:00:12.153Z,4.10
2023-03-19T20:02:31.167Z,4.40
2023-03-19T20:04:36.797Z,4.30
2023-03-19T20:06:42.952Z,4.43
2023-03-19T20:08:49.472Z,4.22
2023-03-19T20:10:54.808Z,4.68
2023-03-19T20:13:07.518Z,4.25
2023-03-19T20:15:25.142Z,4.80
2023-03-19T20:17:32.641Z,5.03
2023-03-19T20:19:39.844Z,5.40
2023-03-19T20:21:44.735Z,4.97
2023-03-19T20:23:54.727Z,4.95
2023-03-19T20:25:59.803Z,5.35
2023-03-19T20:28:08.557Z,5.03
2023-03-19T20:30:26.668Z,4.95
2023-03-19T20:32:37.772Z,4.47
2023-03-19T20:34:43.355Z,5.65
2023-03-19T20:36:48.421Z,5.40
2023-03-19T20:38:53.583Z,4.00
2023-03-19T20:41:00.028Z,4.22
2023-03-19T20:43:05.353Z,4.28
2023-03-19T20:45:17.963Z,3.80
2023-03-19T20:47:25.729Z,4.50
2023-03-19T20:49:33.275Z,3.70
2023-03-19T20:51:38.187Z,4.20
2023-03-19T20:53:45.810Z,4.05
2023-03-19T20:55:52.735Z,4.38
2023-03-19T20:57:59.503Z,4.93
2023-03-19T21:00:19.396Z,4.65
2023-03-19T21:02:27.623Z,5.30
2023-03-19T21:04:37.398Z,5.50
2023-03-19T21:06:52.933Z,5.88
2023-03-19T21:09:02.760Z,5.20
2023-03-19T21:11:17.701Z,5.55
2023-03-19T21:13:22.801Z,4.80
2023-03-19T21:15:28.444Z,4.95
2023-03-19T21:17:33.358Z,5.05
2023-03-19T21:19:42.736Z,5.57
2023-03-19T21:21:48.255Z,4.72
2023-03-19T21:23:59.755Z,4.72
2023-03-19T21:26:11.922Z,5.25
2023-03-19T21:28:26.181Z,5.72
2023-03-19T21:30:32.731Z,5.90
2023-03-19T21:32:37.966Z,5.90
2023-03-19T21:34:45.863Z,4.80
2023-03-19T21:36:50.940Z,5.40
2023-03-19T21:38:56.584Z,5.63
2023-03-19T21:41:05.042Z,6.05
2023-03-19T21:43:10.052Z,5.72
2023-03-19T21:45:26.608Z,6.20
2023-03-19T21:47:33.885Z,6.18
2023-03-19T21:49:38.803Z,6.68
2023-03-19T21:51:46.831Z,7.07
2023-03-19T21:53:52.021Z,7.32
2023-03-19T21:56:00.134Z,6.68
2023-03-19T21:58:05.118Z,6.95
2023-03-19T22:00:17.111Z,6.30
2023-03-19T22:02:46.972Z,6.57
2023-03-19T22:04:52.018Z,7.05
2023-03-19T22:06:59.647Z,7.10
2023-03-19T22:09:05.117Z,6.85
2023-03-19T22:11:19.837Z,7.93
2023-03-19T22:13:29.192Z,7.72
2023-03-19T22:15:37.668Z,7.18
2023-03-19T22:17:42.746Z,6.65
2023-03-19T22:19:48.878Z,6.72
2023-03-19T22:21:53.884Z,6.85
2023-03-19T22:24:04.143Z,6.20
2023-03-19T22:26:28.394Z,5.93
2023-03-19T22:28:37.323Z,7.28
2023-03-19T22:30:42.566Z,7.40
2023-03-19T22:32:47.503Z,6.13
2023-03-19T22:34:52.647Z,6.40
2023-03-19T22:36:57.636Z,6.13
2023-03-19T22:39:06.520Z,6.75
2023-03-19T22:41:18.787Z,6.47
2023-03-19T22:43:31.196Z,6.80
2023-03-19T22:45:36.808Z,7.00
2023-03-19T22:47:42.229Z,6.93
2023-03-19T22:49:48.876Z,6.97
2023-03-19T22:51:53.901Z,7.20
2023-03-19T22:53:59.189Z,6.95
2023-03-19T22:56:09.421Z,7.05
2023-03-19T22:58:14.319Z,6.75
2023-03-19T23:00:26.001Z,6.63
2023-03-19T23:02:33.781Z,6.55
2023-03-19T23:04:39.262Z,6.25
2023-03-19T23:06:44.288Z,5.90
2023-03-19T23:08:49.539Z,5.40
2023-03-19T23:10:56.552Z,5.28
2023-03-19T23:13:04.219Z,5.95
2023-03-19T23:15:11.196Z,6.07
2023-03-19T23:17:20.422Z,5.68
2023-03-19T23:19:28.333Z,6.15
2023-03-19T23:23:38.299Z,5.85
2023-03-19T23:25:44.637Z,5.88
2023-03-19T23:27:52.621Z,6.30
2023-03-19T23:30:03.440Z,6.45
2023-03-19T23:32:10.011Z,5.85
2023-03-19T23:34:19.739Z,6.65
2023-03-19T23:36:27.773Z,6.85
2023-03-19T23:38:32.859Z,6.35
2023-03-19T23:40:38.771Z,7.10
2023-03-19T23:42:50.483Z,6.45
2023-03-19T23:45:00.169Z,5.93
2023-03-19T23:47:07.910Z,6.07
2023-03-19T23:49:16.032Z,6.30
2023-03-19T23:51:21.509Z,6.22
2023-03-19T23:53:29.356Z,5.88
2023-03-19T23:55:35.739Z,6.15
2023-03-19T23:57:41.825Z,5.65
2023-03-19T23:59:50.356Z,5.65
